Pagina principale
METAR-TAF:

METAR-TAF

Aeroporti :

Sion, Svizzera

latitudine: 46-13N, longitudine: 007-20E, altezza: 482 m

Osservazione

Il bollettino è stato emesso 37 minuti fa, alle 11:50 UTC
Vento 3 kt da direzioni variabili
Temperature 6°C
Umidità 81%
Pressione 1020 hPa
Visibilità 10 km o più
Nubi sparse ad un'altezza di 2500 ft
Nuvoloso ad un'altezza di 7000 ft

METAR: LSGS 191150Z VRB03KT 9999 SCT025 BKN070 06/03 Q1020 RERA

Ora: 13:27 (12:27 UTC)

Previsione

Il bollettino è stato emesso 1 ora e 2 minuti fa, alle 11:25 UTC
Previsione valida dal 19 alle 12 UTC al 19 alle 21 UTC
Vento 5 kt da ovest/sud-ovest
Visibilità 10 km o più
Poco nuvoloso ad un'altezza di 1000 ft
Nubi sparse ad un'altezza di 2500 ft
Nuvoloso ad un'altezza di 6000 ft

TAF: LSGS 191125Z 1912/1921 25005KT 9999 FEW010 SCT025 BKN060

Osservazioni e previsioni meteorologiche di più di 4000 aeroporti (messaggi METAR e TAF).

Le stazioni disponibili sono rappresentate dai dischi gialli e rossi sulla carta.

Puntare il mouse per vedere il nome della stazione.

Clicca sopra per visualizzare le osservazioni e previsioni meteorologiche.

Per cambiare la mappa : fare clic sui pulsanti verdi con una croce nera per ingrandire, il pulsante verde con un trattino per diminuire, o sulla freccia verde per le mappe adiacenti.


METAR-TAF: